Time;durP1;ratioP1;P1;durP2;ratioP2;P2;SDS_P1;SDS_P2;PMS_P1;PMS_P2;Temp;Humidity;BMP_temperature;BMP_pressure;BME280_temperature;BME280_humidity;BME280_pressure;Samples;Min_cycle;Max_cycle;Signal;HPM_P1;HPM_P2
2023/08/26 00:01:58;;;;;;;19.85;12.55;;;18.20;99.90;;;;;;6253917;22;20419;-92
2023/08/26 00:04:59;;;;;;;;;;;;;;;;;;;;;
2023/08/26 00:07:49;;;;;;;33.63;13.40;;;18.20;99.90;;;;;;6279821;22;20020;-94
2023/08/26 00:10:37;;;;;;;22.45;13.63;;;18.10;99.90;;;;;;6277980;22;20103;-93
2023/08/26 00:13:27;;;;;;;19.42;13.20;;;18.00;99.90;;;;;;6274929;22;20338;-93
2023/08/26 00:16:17;;;;;;;19.48;13.70;;;18.00;99.90;;;;;;6257238;22;20046;-90
2023/08/26 00:19:08;;;;;;;23.10;12.80;;;18.00;99.90;;;;;;6258228;22;20181;-91
2023/08/26 00:21:55;;;;;;;20.05;13.00;;;18.00;99.90;;;;;;6256184;22;20028;-90
2023/08/26 00:24:45;;;;;;;20.60;13.60;;;17.90;99.90;;;;;;6278724;22;20102;-92
2023/08/26 00:27:36;;;;;;;17.50;12.45;;;17.90;99.90;;;;;;6277403;22;20115;-91
2023/08/26 00:30:29;;;;;;;17.90;12.65;;;17.90;99.90;;;;;;6236896;22;20034;-93
2023/08/26 00:33:19;;;;;;;17.70;13.32;;;17.90;99.90;;;;;;6256737;22;20050;-92
2023/08/26 00:36:14;;;;;;;15.27;12.30;;;17.80;99.90;;;;;;6259049;22;20150;-92
2023/08/26 00:39:04;;;;;;;19.05;11.20;;;17.80;99.90;;;;;;6280192;22;20032;-93
2023/08/26 00:41:51;;;;;;;14.60;10.13;;;17.80;99.90;;;;;;6280935;22;20502;-93
2023/08/26 00:44:39;;;;;;;15.40;10.10;;;17.80;99.90;;;;;;6279274;22;20024;-92
2023/08/26 00:47:26;;;;;;;13.95;9.40;;;17.80;99.90;;;;;;6258732;22;20020;-92
2023/08/26 00:50:14;;;;;;;11.48;8.30;;;17.80;99.90;;;;;;6258121;22;20024;-92
2023/08/26 00:53:02;;;;;;;12.85;8.07;;;17.80;99.90;;;;;;6281441;22;20027;-91
2023/08/26 00:55:53;;;;;;;11.50;6.80;;;17.80;99.90;;;;;;6279874;22;20079;-94
2023/08/26 00:58:41;;;;;;;10.25;6.80;;;17.80;99.90;;;;;;6257569;22;20314;-93
2023/08/26 01:01:32;;;;;;;12.23;6.78;;;17.80;99.90;;;;;;6257217;22;20027;-92
2023/08/26 01:04:20;;;;;;;15.02;6.20;;;17.80;99.90;;;;;;6279515;22;20051;-91
2023/08/26 01:07:07;;;;;;;10.43;6.57;;;17.80;99.90;;;;;;6263712;22;20105;-91
2023/08/26 01:09:58;;;;;;;18.00;7.13;;;17.80;99.90;;;;;;6261925;22;20019;-93
2023/08/26 01:13:02;;;;;;;25.88;7.45;;;17.70;99.90;;;;;;6259270;22;20024;-94
2023/08/26 01:15:51;;;;;;;18.42;7.60;;;17.70;99.90;;;;;;6279134;22;20086;-93
2023/08/26 01:18:40;;;;;;;9.25;6.82;;;17.70;99.90;;;;;;6235322;22;20075;-90
2023/08/26 01:21:34;;;;;;;12.43;7.60;;;17.70;99.90;;;;;;6257653;22;20089;-93
2023/08/26 01:24:23;;;;;;;8.93;6.28;;;17.70;99.90;;;;;;6279314;22;20027;-92
2023/08/26 01:27:12;;;;;;;8.48;6.10;;;17.80;99.90;;;;;;6261027;22;20024;-90
2023/08/26 01:30:00;;;;;;;13.57;6.97;;;17.80;99.90;;;;;;6262164;22;20024;-90
2023/08/26 01:32:55;;;;;;;10.57;6.55;;;17.80;99.90;;;;;;6261462;22;20023;-91
2023/08/26 01:35:46;;;;;;;8.95;6.18;;;17.80;99.90;;;;;;6283488;22;20028;-91
2023/08/26 01:38:34;;;;;;;8.50;6.18;;;17.80;99.90;;;;;;6264138;22;20027;-92
2023/08/26 01:41:23;;;;;;;10.45;6.57;;;17.80;99.90;;;;;;6266792;22;20070;-89
2023/08/26 01:44:12;;;;;;;8.20;6.45;;;17.80;99.90;;;;;;6279071;22;20030;-92
2023/08/26 01:47:07;;;;;;;9.65;6.78;;;17.80;99.90;;;;;;6260559;22;20028;-93
2023/08/26 01:49:57;;;;;;;9.50;7.60;;;17.70;99.90;;;;;;6281801;22;20030;-92
2023/08/26 01:52:50;;;;;;;10.45;8.18;;;17.80;99.90;;;;;;6257858;22;20158;-92
2023/08/26 01:55:38;;;;;;;13.10;8.30;;;17.80;99.90;;;;;;6257353;22;20099;-91
2023/08/26 01:58:26;;;;;;;13.88;8.80;;;17.70;99.90;;;;;;6258079;22;20028;-92
2023/08/26 02:01:13;;;;;;;12.45;8.57;;;17.80;99.90;;;;;;6254403;22;20811;-92
2023/08/26 02:04:01;;;;;;;15.27;9.05;;;17.80;99.90;;;;;;6256926;22;20024;-92
2023/08/26 02:06:49;;;;;;;13.73;9.10;;;17.70;99.90;;;;;;6278596;22;20026;-91
2023/08/26 02:09:36;;;;;;;15.40;9.45;;;17.70;99.90;;;;;;6258061;22;20425;-93
2023/08/26 02:12:24;;;;;;;13.55;8.68;;;17.70;99.90;;;;;;6256104;22;20042;-94
2023/08/26 02:15:12;;;;;;;12.82;9.82;;;17.80;99.90;;;;;;6257867;22;20413;-94
2023/08/26 02:18:00;;;;;;;15.55;9.77;;;17.70;99.90;;;;;;6256554;22;20027;-91
2023/08/26 02:20:48;;;;;;;15.52;10.48;;;17.70;99.90;;;;;;6256478;22;20449;-93
2023/08/26 02:23:37;;;;;;;15.98;10.27;;;17.80;99.90;;;;;;6277357;22;20154;-93
2023/08/26 02:26:24;;;;;;;16.58;11.05;;;17.80;99.90;;;;;;6276075;22;20024;-91
2023/08/26 02:29:12;;;;;;;14.95;11.10;;;17.70;99.90;;;;;;6276155;22;20055;-93
2023/08/26 02:32:00;;;;;;;20.83;12.60;;;17.70;99.90;;;;;;6256819;22;20189;-92
2023/08/26 02:34:47;;;;;;;17.63;12.50;;;17.70;99.90;;;;;;6277001;22;20111;-94
2023/08/26 02:37:35;;;;;;;21.25;12.35;;;17.70;99.90;;;;;;6236717;22;20028;-92
2023/08/26 02:40:22;;;;;;;19.98;13.93;;;17.70;99.90;;;;;;6278888;22;20453;-94
2023/08/26 02:43:11;;;;;;;22.63;13.73;;;17.60;99.90;;;;;;6276194;22;20024;-93
2023/08/26 02:45:58;;;;;;;20.92;14.55;;;17.60;99.90;;;;;;6274187;22;20034;-93
2023/08/26 02:48:46;;;;;;;19.73;13.70;;;17.50;99.90;;;;;;6275844;22;20019;-92
2023/08/26 02:51:33;;;;;;;21.58;14.18;;;17.50;99.90;;;;;;6254660;22;20324;-93
2023/08/26 02:54:21;;;;;;;21.92;13.63;;;17.50;99.90;;;;;;6276724;22;20024;-93
2023/08/26 02:57:08;;;;;;;23.45;14.00;;;17.40;99.90;;;;;;6275323;22;20384;-92
2023/08/26 02:59:55;;;;;;;21.02;14.18;;;17.40;99.90;;;;;;6279167;22;20031;-93
2023/08/26 03:02:43;;;;;;;20.63;13.82;;;17.50;99.90;;;;;;6256412;22;20376;-95
2023/08/26 03:05:30;;;;;;;18.83;13.43;;;17.40;99.90;;;;;;6256273;22;20407;-93
2023/08/26 03:08:18;;;;;;;20.90;14.55;;;17.40;99.90;;;;;;6276801;22;20023;-94
2023/08/26 03:11:09;;;;;;;21.73;14.52;;;17.40;99.90;;;;;;6278061;22;20039;-94
2023/08/26 03:13:57;;;;;;;25.15;15.32;;;17.40;99.90;;;;;;6278188;22;20050;-93
2023/08/26 03:16:44;;;;;;;26.13;15.75;;;17.40;99.90;;;;;;6289973;22;20078;-92
2023/08/26 03:19:33;;;;;;;28.38;16.95;;;17.40;99.90;;;;;;6287865;22;20027;-92
2023/08/26 03:22:20;;;;;;;26.63;17.00;;;17.40;99.90;;;;;;6254599;22;20103;-92
2023/08/26 03:25:08;;;;;;;26.77;17.25;;;17.40;99.90;;;;;;6276930;22;20020;-93
2023/08/26 03:27:55;;;;;;;28.35;17.48;;;17.40;99.90;;;;;;6278270;22;20169;-93
2023/08/26 03:30:43;;;;;;;28.38;17.58;;;17.30;99.90;;;;;;6275218;22;20027;-94
2023/08/26 03:33:33;;;;;;;24.83;15.73;;;17.30;99.90;;;;;;6255788;22;20441;-91
2023/08/26 03:36:21;;;;;;;28.35;17.02;;;17.20;99.90;;;;;;6256153;22;20034;-93
2023/08/26 03:39:14;;;;;;;26.15;16.55;;;17.20;99.90;;;;;;6277787;22;20023;-93
2023/08/26 03:42:02;;;;;;;25.30;17.30;;;17.20;99.90;;;;;;6261738;22;20027;-91
2023/08/26 03:44:49;;;;;;;23.85;16.48;;;17.20;99.90;;;;;;6282498;22;20099;-93
2023/08/26 03:47:36;;;;;;;24.30;17.00;;;17.20;99.90;;;;;;6275754;22;20020;-91
2023/08/26 03:50:24;;;;;;;20.90;16.55;;;17.20;99.90;;;;;;6277479;22;20019;-93
2023/08/26 03:53:11;;;;;;;25.40;15.98;;;17.10;99.90;;;;;;6257459;22;20023;-92
2023/08/26 03:56:01;;;;;;;27.40;17.42;;;17.10;99.90;;;;;;6236349;22;20028;-92
2023/08/26 03:58:56;;;;;;;26.80;16.63;;;17.10;99.90;;;;;;6257975;22;20034;-92
2023/08/26 04:01:43;;;;;;;29.80;17.88;;;17.10;99.90;;;;;;6278003;22;20031;-92
2023/08/26 04:04:44;;;;;;;25.75;17.23;;;17.10;99.90;;;;;;6249054;22;20035;-91
2023/08/26 04:07:35;;;;;;;28.13;18.25;;;17.00;99.90;;;;;;6258412;22;20107;-92
2023/08/26 04:10:24;;;;;;;27.00;17.98;;;17.00;99.90;;;;;;6255885;22;20039;-91
2023/08/26 04:13:23;;;;;;;26.58;17.15;;;16.90;99.90;;;;;;6257807;22;20024;-91
2023/08/26 04:16:15;;;;;;;29.98;17.77;;;16.80;99.90;;;;;;6260351;22;20047;-92
2023/08/26 04:19:11;;;;;;;24.17;17.15;;;16.80;99.90;;;;;;6257759;22;20045;-92
2023/08/26 04:22:00;;;;;;;34.63;17.90;;;16.70;99.90;;;;;;6256422;22;20020;-92
2023/08/26 04:24:48;;;;;;;24.63;16.20;;;16.70;99.90;;;;;;6259436;22;20059;-91
2023/08/26 04:27:39;;;;;;;36.67;17.17;;;16.70;99.90;;;;;;6257578;22;20027;-93
2023/08/26 04:30:26;;;;;;;26.00;16.13;;;16.70;99.90;;;;;;6277440;22;20311;-92
2023/08/26 04:33:14;;;;;;;24.92;15.07;;;16.70;99.90;;;;;;6256153;22;20115;-91
2023/08/26 04:36:01;;;;;;;21.55;15.40;;;16.70;99.90;;;;;;6276631;22;20166;-90
2023/08/26 04:38:51;;;;;;;24.98;15.23;;;16.70;99.90;;;;;;6258931;22;20028;-92
2023/08/26 04:41:39;;;;;;;29.77;15.75;;;16.60;99.90;;;;;;6278855;22;20027;-90
2023/08/26 04:48:56;;;;;;;30.73;16.50;;;16.40;99.90;;;;;;6028141;23;20130;-93
2023/08/26 04:51:51;;;;;;;22.17;15.38;;;16.40;99.90;;;;;;6254345;22;20020;-93
2023/08/26 04:54:39;;;;;;;27.85;15.65;;;16.40;99.90;;;;;;6280119;22;20024;-95
2023/08/26 04:57:26;;;;;;;27.10;15.77;;;16.50;99.90;;;;;;6279148;22;20566;-92
2023/08/26 05:00:16;;;;;;;26.35;14.63;;;16.50;99.90;;;;;;6281155;22;20043;-93
2023/08/26 05:03:04;;;;;;;20.10;15.02;;;16.50;99.90;;;;;;6257282;22;20102;-91
2023/08/26 05:05:52;;;;;;;23.15;15.50;;;16.60;99.90;;;;;;6279435;22;20044;-90
2023/08/26 05:08:41;;;;;;;19.75;13.57;;;16.60;99.90;;;;;;6277970;22;20117;-91
2023/08/26 05:11:31;;;;;;;24.15;14.20;;;16.70;99.90;;;;;;6279293;22;20026;-93
2023/08/26 05:14:18;;;;;;;22.10;14.02;;;16.70;99.90;;;;;;6257661;22;20027;-93
2023/08/26 05:17:05;;;;;;;20.65;14.35;;;16.70;99.90;;;;;;6278195;22;20031;-90
2023/08/26 05:19:53;;;;;;;20.88;13.05;;;16.70;99.90;;;;;;6280982;22;20023;-90
2023/08/26 05:22:43;;;;;;;18.52;14.75;;;16.80;99.90;;;;;;6260513;22;20024;-91
2023/08/26 05:25:30;;;;;;;21.20;13.63;;;16.80;99.90;;;;;;6259631;22;20039;-92
2023/08/26 05:28:19;;;;;;;18.40;13.10;;;16.70;99.90;;;;;;6280422;22;20024;-92
2023/08/26 05:31:06;;;;;;;24.88;14.93;;;16.70;99.90;;;;;;6278531;22;20031;-92
2023/08/26 05:33:59;;;;;;;22.88;14.55;;;16.70;99.90;;;;;;6280422;22;20035;-93
2023/08/26 05:36:46;;;;;;;24.15;15.27;;;16.70;99.90;;;;;;6290573;22;20039;-91
2023/08/26 05:39:33;;;;;;;23.92;15.27;;;16.80;99.90;;;;;;6292294;22;20027;-93
2023/08/26 05:42:26;;;;;;;20.63;13.25;;;16.90;99.90;;;;;;6285911;22;20097;-94
2023/08/26 05:45:15;;;;;;;22.27;13.63;;;16.80;99.90;;;;;;6257583;22;20027;-93
2023/08/26 05:48:03;;;;;;;18.23;12.93;;;16.80;99.90;;;;;;6281328;22;20020;-92
2023/08/26 05:50:50;;;;;;;21.27;13.00;;;16.90;99.90;;;;;;6280602;22;20410;-91
2023/08/26 05:53:47;;;;;;;24.00;15.13;;;16.80;99.90;;;;;;6280407;22;20081;-92
2023/08/26 05:56:47;;;;;;;25.60;15.82;;;16.90;99.90;;;;;;6280824;22;20098;-95
2023/08/26 06:00:04;;;;;;;;;;;;;;;;;;;;;
2023/08/26 06:03:54;;;;;;;26.20;16.45;;;17.10;99.90;;;;;;6276353;22;20027;-95
2023/08/26 06:07:02;;;;;;;;;;;;;;;;;;;;;
2023/08/26 06:10:23;;;;;;;;;;;;;;;;;;;;;
2023/08/26 06:13:16;;;;;;;18.08;13.45;;;17.20;99.90;;;;;;6294836;22;20043;-93
2023/08/26 06:16:28;;;;;;;24.75;12.57;;;17.20;99.90;;;;;;6300393;22;20027;-92
2023/08/26 06:19:17;;;;;;;19.80;12.48;;;17.20;99.90;;;;;;6267120;22;20461;-93
2023/08/26 06:22:05;;;;;;;19.77;11.25;;;17.40;99.90;;;;;;6293479;22;20024;-93
2023/08/26 06:24:55;;;;;;;19.55;10.43;;;17.50;99.90;;;;;;6278084;22;20024;-87
2023/08/26 06:27:42;;;;;;;20.08;10.05;;;17.60;99.90;;;;;;6278457;22;20085;-86
2023/08/26 06:30:36;;;;;;;16.30;8.48;;;17.70;99.90;;;;;;6277397;22;20030;-88
2023/08/26 06:33:23;;;;;;;14.65;7.43;;;17.90;99.90;;;;;;6275900;22;20023;-86
2023/08/26 06:36:13;;;;;;;10.73;6.65;;;18.00;99.90;;;;;;6278684;22;20020;-85
2023/08/26 06:39:00;;;;;;;12.23;6.60;;;18.20;99.90;;;;;;6275210;22;20023;-86
2023/08/26 06:41:47;;;;;;;10.48;6.28;;;18.30;99.90;;;;;;6276138;22;20024;-86
2023/08/26 06:44:37;;;;;;;12.10;6.10;;;18.60;99.90;;;;;;6278024;22;20418;-85
2023/08/26 06:47:25;;;;;;;10.85;5.38;;;18.80;99.90;;;;;;6277078;22;20035;-85
2023/08/26 06:50:16;;;;;;;10.68;5.20;;;19.00;99.90;;;;;;6275961;22;20241;-86
2023/08/26 06:53:06;;;;;;;9.50;5.75;;;18.90;99.90;;;;;;6276194;22;20024;-86
2023/08/26 06:55:53;;;;;;;12.90;5.38;;;18.80;99.90;;;;;;6278173;22;20039;-85
2023/08/26 06:58:45;;;;;;;9.60;5.32;;;18.80;99.90;;;;;;6276670;22;20425;-85
2023/08/26 07:01:34;;;;;;;8.47;5.77;;;18.70;99.90;;;;;;6274797;22;20038;-86
2023/08/26 07:04:21;;;;;;;11.25;5.75;;;18.80;99.90;;;;;;6274940;22;20019;-84
2023/08/26 07:07:11;;;;;;;9.38;5.78;;;18.80;99.90;;;;;;6254557;22;20015;-85
2023/08/26 07:09:59;;;;;;;11.82;5.28;;;18.90;99.90;;;;;;6275184;22;20024;-84
2023/08/26 07:12:46;;;;;;;11.18;5.93;;;19.00;99.90;;;;;;6276751;22;20024;-83
2023/08/26 07:15:34;;;;;;;10.95;5.20;;;19.20;99.90;;;;;;6275590;22;20034;-83
2023/08/26 07:18:21;;;;;;;11.55;5.28;;;19.50;99.90;;;;;;6254917;22;20035;-85
2023/08/26 07:21:08;;;;;;;9.63;4.80;;;19.70;99.90;;;;;;6279443;22;20079;-84
2023/08/26 07:23:55;;;;;;;6.93;4.57;;;20.10;99.90;;;;;;6276604;22;20019;-86
2023/08/26 07:26:45;;;;;;;9.43;4.05;;;20.30;99.90;;;;;;6276352;22;20024;-85
2023/08/26 07:29:33;;;;;;;7.05;4.25;;;20.50;99.90;;;;;;6274799;22;20303;-83
2023/08/26 07:32:23;;;;;;;12.13;5.13;;;20.60;99.90;;;;;;6277526;22;20115;-84
2023/08/26 07:35:13;;;;;;;6.65;4.18;;;20.70;99.90;;;;;;6276703;22;20407;-85
2023/08/26 07:38:00;;;;;;;9.45;4.57;;;20.90;99.90;;;;;;6254300;22;20415;-86
2023/08/26 07:40:49;;;;;;;12.05;4.55;;;20.90;99.90;;;;;;6252811;22;20031;-87
2023/08/26 07:43:37;;;;;;;7.25;4.72;;;20.70;1.00;;;;;;6275623;22;20039;-84
2023/08/26 07:46:25;;;;;;;8.05;3.75;;;20.60;1.00;;;;;;6274498;22;20110;-87
2023/08/26 07:49:18;;;;;;;7.10;4.05;;;20.60;99.90;;;;;;6255186;22;20027;-86
2023/08/26 07:52:05;;;;;;;8.70;4.53;;;20.80;1.00;;;;;;6276696;22;20024;-85
2023/08/26 07:54:52;;;;;;;9.18;3.80;;;21.00;1.00;;;;;;6276863;22;20027;-87
2023/08/26 07:57:40;;;;;;;8.60;3.95;;;21.00;99.90;;;;;;6278074;22;20035;-88
2023/08/26 08:00:29;;;;;;;9.32;3.78;;;21.10;1.00;;;;;;6274481;22;20027;-89
2023/08/26 08:03:16;;;;;;;7.45;3.38;;;21.50;1.00;;;;;;6277712;22;20423;-89
2023/08/26 08:06:04;;;;;;;10.70;3.45;;;21.60;99.90;;;;;;6276642;22;20036;-89
2023/08/26 08:08:52;;;;;;;8.25;3.30;;;21.70;1.00;;;;;;6252964;22;20019;-87
2023/08/26 08:11:39;;;;;;;13.38;3.35;;;21.60;99.90;;;;;;6255563;22;20015;-91
2023/08/26 08:14:30;;;;;;;6.85;3.53;;;21.10;99.90;;;;;;6273503;22;20043;-90
2023/08/26 08:17:20;;;;;;;11.55;3.70;;;21.10;1.00;;;;;;6276585;22;20028;-92
2023/08/26 08:20:07;;;;;;;9.23;3.40;;;21.30;99.90;;;;;;6254554;22;20024;-91
2023/08/26 08:22:58;;;;;;;10.05;3.03;;;22.40;99.90;;;;;;6259053;22;20031;-91
2023/08/26 08:29:55;;;;;;;7.65;2.88;;;24.40;99.90;;;;;;6279922;22;20029;-91
2023/08/26 08:32:42;;;;;;;9.82;3.38;;;24.10;99.90;;;;;;6255182;22;20038;-92
2023/08/26 09:00:25;;;;;;;9.00;3.13;;;21.30;56.00;;;;;;6248947;22;20012;-88
2023/08/26 09:07:24;;;;;;;11.52;3.25;;;22.00;1.00;;;;;;6249372;22;20024;-90
2023/08/26 09:10:11;;;;;;;8.25;3.17;;;22.40;1.00;;;;;;6246618;23;20024;-90
2023/08/26 09:13:00;;;;;;;17.08;3.60;;;22.40;99.90;;;;;;6224835;23;20024;-91
2023/08/26 09:15:48;;;;;;;8.82;3.40;;;22.40;99.90;;;;;;6226954;23;20093;-91
2023/08/26 09:18:39;;;;;;;9.75;3.47;;;22.30;99.90;;;;;;6227202;23;20024;-89
2023/08/26 09:21:28;;;;;;;5.75;3.15;;;22.60;99.90;;;;;;6224352;23;20174;-93
2023/08/26 09:24:17;;;;;;;11.02;3.50;;;22.60;99.90;;;;;;6248341;23;20509;-92
2023/08/26 09:27:05;;;;;;;7.85;3.70;;;22.50;99.90;;;;;;6227338;23;20083;-92
2023/08/26 09:29:54;;;;;;;9.95;3.15;;;22.40;99.90;;;;;;6248240;23;20134;-91
2023/08/26 09:32:45;;;;;;;8.30;3.30;;;22.10;99.90;;;;;;6224473;23;20020;-90
2023/08/26 09:35:35;;;;;;;12.50;3.75;;;21.70;99.90;;;;;;6226279;23;20024;-90
2023/08/26 09:38:26;;;;;;;6.30;3.53;;;21.50;99.90;;;;;;6228199;23;20028;-91
2023/08/26 09:41:23;;;;;;;7.53;3.65;;;21.30;99.90;;;;;;6226350;23;20109;-90
2023/08/26 09:44:12;;;;;;;8.52;3.28;;;21.30;99.90;;;;;;6247614;23;20125;-89
2023/08/26 09:46:59;;;;;;;7.90;3.22;;;21.40;99.90;;;;;;6225512;23;20031;-89
2023/08/26 09:49:50;;;;;;;11.23;3.83;;;21.70;99.90;;;;;;6246115;23;20020;-88
2023/08/26 09:52:46;;;;;;;7.90;3.30;;;21.80;99.90;;;;;;6248109;23;20419;-90
2023/08/26 09:55:38;;;;;;;7.03;3.67;;;22.10;99.90;;;;;;6246123;23;20052;-90
2023/08/26 09:58:26;;;;;;;9.38;3.13;;;23.00;99.90;;;;;;6227066;23;20024;-89
2023/08/26 10:05:42;;;;;;;7.25;3.53;;;23.80;99.90;;;;;;6250079;22;20446;-90
2023/08/26 10:09:27;;;;;;;8.52;3.38;;;23.10;99.90;;;;;;6149063;23;20026;-90
2023/08/26 10:17:18;;;;;;;7.65;3.15;;;22.10;99.90;;;;;;6076900;23;20011;-89
2023/08/26 10:20:39;;;;;;;6.65;3.40;;;21.60;99.90;;;;;;6076701;23;20034;-89
2023/08/26 10:23:29;;;;;;;6.90;3.58;;;21.20;1.00;;;;;;6068259;23;20027;-89
2023/08/26 10:26:19;;;;;;;8.65;4.05;;;21.00;1.00;;;;;;6045888;23;20109;-90
2023/08/26 10:29:20;;;;;;;6.35;3.35;;;20.90;1.00;;;;;;6068226;23;20038;-90
2023/08/26 10:36:17;;;;;;;9.57;3.90;;;20.70;99.90;;;;;;6067035;23;20370;-93
2023/08/26 10:43:23;;;;;;;8.73;4.00;;;20.30;99.90;;;;;;6187642;23;20004;-90
2023/08/26 10:47:09;;;;;;;11.05;4.45;;;20.30;74.10;;;;;;6225955;23;20031;-92
2023/08/26 10:59:14;;;;;;;11.15;4.82;;;20.10;1.00;;;;;;6182378;23;20396;-92
2023/08/26 11:02:23;;;;;;;7.55;4.15;;;20.40;1.00;;;;;;6164303;23;20140;-91
2023/08/26 11:13:09;;;;;;;7.97;3.30;;;21.20;94.00;;;;;;6155245;23;20032;-90
2023/08/26 11:19:51;;;;;;;8.23;4.55;;;22.00;99.90;;;;;;6213076;23;20028;-88
2023/08/26 11:23:26;;;;;;;9.45;4.30;;;21.90;1.00;;;;;;6214177;23;20083;-90
2023/08/26 11:27:33;;;;;;;8.27;3.72;;;21.80;1.00;;;;;;6095600;23;20026;-89
2023/08/26 11:31:03;;;;;;;8.75;4.15;;;21.20;1.00;;;;;;6094509;23;20027;-89
2023/08/26 11:38:17;;;;;;;9.35;4.20;;;20.70;99.90;;;;;;6096190;23;20025;-89
2023/08/26 11:41:05;;;;;;;;;;;20.80;99.90;;;;;;6096876;23;20030;-89
2023/08/26 11:52:04;;;;;;;8.02;4.60;;;20.40;34.10;;;;;;6039190;23;20396;-89
2023/08/26 11:54:54;;;;;;;8.75;4.93;;;20.10;1.00;;;;;;6064348;23;20098;-89
2023/08/26 11:57:58;;;;;;;15.07;5.15;;;19.90;99.90;;;;;;6245503;23;20028;-90
2023/08/26 12:01:22;;;;;;;10.02;5.82;;;19.80;1.00;;;;;;6245142;23;20025;-88
2023/08/26 12:04:18;;;;;;;15.40;6.50;;;19.60;1.00;;;;;;6245200;23;20428;-88
2023/08/26 12:07:09;;;;;;;14.30;5.97;;;19.40;99.90;;;;;;6225899;23;20027;-89
2023/08/26 12:09:57;;;;;;;11.60;5.70;;;19.20;99.90;;;;;;6246994;23;20031;-89
2023/08/26 12:13:16;;;;;;;15.57;6.70;;;19.00;99.90;;;;;;6248536;22;20463;-89
2023/08/26 12:16:03;;;;;;;9.35;6.18;;;19.00;99.90;;;;;;6225301;23;20028;-90
2023/08/26 12:18:53;;;;;;;9.65;6.68;;;18.90;99.90;;;;;;6225567;23;20130;-90
2023/08/26 12:21:41;;;;;;;7.53;6.35;;;18.90;99.90;;;;;;6227598;22;20080;-89
2023/08/26 12:24:31;;;;;;;9.98;7.15;;;18.80;99.90;;;;;;6246325;23;20024;-91
2023/08/26 12:27:19;;;;;;;12.32;9.30;;;18.80;99.90;;;;;;6250095;22;20024;-91
2023/08/26 12:30:09;;;;;;;11.55;8.18;;;18.70;99.90;;;;;;6248724;23;20071;-91
2023/08/26 12:33:07;;;;;;;10.68;7.78;;;18.60;99.90;;;;;;6248691;23;20020;-91
2023/08/26 12:36:10;;;;;;;13.48;8.52;;;18.50;99.90;;;;;;6239220;23;20028;-91
2023/08/26 12:39:03;;;;;;;10.85;8.27;;;18.60;99.90;;;;;;6239562;23;20034;-91
2023/08/26 12:41:59;;;;;;;17.50;10.00;;;18.70;99.90;;;;;;6229272;23;20035;-91
2023/08/26 12:44:48;;;;;;;14.13;8.93;;;18.70;99.90;;;;;;6252448;23;20020;-92
2023/08/26 12:47:36;;;;;;;14.65;9.13;;;18.70;99.90;;;;;;6228786;23;20028;-90
2023/08/26 12:50:38;;;;;;;15.38;9.77;;;18.70;99.90;;;;;;6240890;23;20027;-92
2023/08/26 12:53:36;;;;;;;12.73;8.07;;;18.50;99.90;;;;;;6240735;23;20032;-89
2023/08/26 12:56:34;;;;;;;19.20;6.93;;;18.30;99.90;;;;;;6263033;23;20020;-90
2023/08/26 12:59:23;;;;;;;14.10;6.93;;;18.00;99.90;;;;;;6234789;22;20028;-92
2023/08/26 13:02:11;;;;;;;11.95;6.80;;;17.90;99.90;;;;;;6228608;23;20062;-92
2023/08/26 13:05:09;;;;;;;11.35;6.25;;;17.80;99.90;;;;;;6227749;23;20024;-92
2023/08/26 13:08:10;;;;;;;13.30;6.93;;;17.70;99.90;;;;;;6230607;23;20023;-92
2023/08/26 13:11:24;;;;;;;14.75;7.18;;;17.60;99.90;;;;;;6251479;23;20024;-92
2023/08/26 13:14:18;;;;;;;10.05;5.88;;;17.60;99.90;;;;;;6228799;23;20025;-94
2023/08/26 13:18:26;;;;;;;;;;;;;;;;;;;;;
2023/08/26 13:21:26;;;;;;;9.45;5.32;;;17.20;99.90;;;;;;6250547;23;20020;-93
2023/08/26 13:24:33;;;;;;;11.00;5.18;;;17.30;99.90;;;;;;6234521;23;20026;-92
2023/08/26 13:27:30;;;;;;;9.70;5.18;;;17.10;99.90;;;;;;6229594;23;20505;-90
2023/08/26 13:30:56;;;;;;;12.77;4.85;;;17.00;99.90;;;;;;6234332;23;20090;-92
2023/08/26 13:33:49;;;;;;;8.48;4.72;;;16.80;99.90;;;;;;6254874;22;20039;-91
2023/08/26 13:37:09;;;;;;;7.57;5.10;;;16.70;99.90;;;;;;6234018;23;20120;-92
2023/08/26 13:39:56;;;;;;;9.25;4.85;;;16.60;99.90;;;;;;6251394;23;20039;-92
2023/08/26 13:42:46;;;;;;;10.27;4.85;;;16.50;99.90;;;;;;6230882;23;20036;-91
2023/08/26 13:46:02;;;;;;;8.55;4.70;;;16.40;99.90;;;;;;6252598;23;20024;-91
2023/08/26 13:49:01;;;;;;;10.82;5.63;;;16.40;99.90;;;;;;6250639;23;20411;-94
2023/08/26 13:52:11;;;;;;;8.75;5.05;;;16.50;99.90;;;;;;6236092;23;20028;-92
2023/08/26 13:55:00;;;;;;;13.27;5.40;;;16.50;99.90;;;;;;6232633;23;20028;-93
2023/08/26 13:58:21;;;;;;;;;;;;;;;;;;;;;
2023/08/26 14:02:33;;;;;;;8.98;5.72;;;16.40;99.90;;;;;;6249722;23;20098;-95
2023/08/26 14:05:45;;;;;;;11.90;6.38;;;16.30;99.90;;;;;;6231609;23;20074;-93
2023/08/26 14:08:49;;;;;;;14.95;6.50;;;16.40;99.90;;;;;;6233066;23;20043;-91
2023/08/26 14:11:49;;;;;;;12.50;5.72;;;16.30;99.90;;;;;;6233930;23;20103;-92
2023/08/26 14:14:52;;;;;;;;;;;;;;;;;;;;;
2023/08/26 14:18:13;;;;;;;10.98;5.43;;;16.40;99.90;;;;;;6251668;23;20019;-92
2023/08/26 14:21:54;;;;;;;6.05;5.07;;;16.50;99.90;;;;;;6234732;23;20032;-93
2023/08/26 14:25:01;;;;;;;8.90;6.47;;;16.50;99.90;;;;;;6244945;23;20039;-91
2023/08/26 14:27:55;;;;;;;9.88;5.90;;;16.70;99.90;;;;;;6257056;23;20024;-93
2023/08/26 14:31:12;;;;;;;11.93;6.70;;;16.70;99.90;;;;;;6265239;23;20220;-92
2023/08/26 14:34:18;;;;;;;12.98;6.53;;;16.60;99.90;;;;;;6263039;23;20031;-93
2023/08/26 14:37:11;;;;;;;7.32;6.03;;;16.70;99.90;;;;;;6261825;22;20035;-92
2023/08/26 14:40:48;;;;;;;;;;;;;;;;;;;;;
2023/08/26 14:49:13;;;;;;;9.68;5.60;;;16.80;99.90;;;;;;6195705;23;20022;-92
2023/08/26 14:52:25;;;;;;;12.07;5.47;;;17.00;99.90;;;;;;6186009;23;20040;-93
2023/08/26 14:56:04;;;;;;;11.95;5.75;;;17.30;99.90;;;;;;6087632;23;20022;-93
2023/08/26 14:59:49;;;;;;;9.27;6.37;;;17.30;99.90;;;;;;6096101;23;20477;-92
2023/08/26 15:03:28;;;;;;;;;;;;;;;;;;;;;
2023/08/26 15:07:08;;;;;;;;;;;;;;;;;;;;;
2023/08/26 15:10:37;;;;;;;10.32;7.22;;;17.20;99.90;;;;;;6080944;23;20122;-93
2023/08/26 15:14:12;;;;;;;16.45;7.38;;;17.10;99.90;;;;;;6142331;23;20045;-92
2023/08/26 15:17:23;;;;;;;12.48;7.47;;;17.10;99.90;;;;;;6145736;23;20037;-92
2023/08/26 15:20:49;;;;;;;12.05;7.63;;;17.20;99.90;;;;;;6121360;23;20428;-93
2023/08/26 15:24:13;;;;;;;15.10;6.93;;;17.30;99.90;;;;;;6135043;23;20041;-92
2023/08/26 15:27:19;;;;;;;10.85;5.90;;;17.30;99.90;;;;;;6113897;23;20022;-91
2023/08/26 15:30:55;;;;;;;;;;;;;;;;;;;;;
2023/08/26 15:34:23;;;;;;;9.20;6.13;;;17.30;99.90;;;;;;6134415;23;20205;-93
2023/08/26 15:37:17;;;;;;;12.63;7.72;;;17.30;99.90;;;;;;6134189;23;20029;-92
2023/08/26 15:40:26;;;;;;;13.50;7.18;;;17.20;99.90;;;;;;6252459;23;20367;-94
2023/08/26 15:43:21;;;;;;;10.55;7.40;;;17.30;99.90;;;;;;6237063;23;20028;-92
2023/08/26 15:46:13;;;;;;;10.63;7.28;;;17.50;99.90;;;;;;6233782;23;20099;-91
2023/08/26 15:49:03;;;;;;;10.30;6.38;;;17.60;99.90;;;;;;6255552;23;20028;-92
2023/08/26 15:51:56;;;;;;;14.82;6.32;;;17.60;99.90;;;;;;6266452;22;20027;-93
2023/08/26 15:54:44;;;;;;;11.60;6.47;;;17.70;99.90;;;;;;6266260;23;20047;-93
2023/08/26 15:57:35;;;;;;;10.45;6.20;;;17.60;99.90;;;;;;6246172;23;20024;-92
2023/08/26 16:00:35;;;;;;;9.25;6.20;;;17.50;99.90;;;;;;6247798;22;20018;-89
2023/08/26 16:03:23;;;;;;;10.23;7.00;;;17.50;99.90;;;;;;6248492;22;20030;-92
2023/08/26 16:06:16;;;;;;;14.93;6.55;;;17.30;99.90;;;;;;6248570;22;20020;-92
2023/08/26 16:09:04;;;;;;;15.32;7.35;;;17.10;99.90;;;;;;6243782;23;20016;-93
2023/08/26 16:11:54;;;;;;;14.13;7.43;;;16.90;99.90;;;;;;6243757;23;20024;-93
2023/08/26 16:14:43;;;;;;;12.00;7.30;;;16.80;99.90;;;;;;6245462;23;20374;-94
2023/08/26 16:17:31;;;;;;;14.18;8.18;;;16.80;99.90;;;;;;6236855;23;20024;-91
2023/08/26 16:20:18;;;;;;;13.40;8.02;;;16.80;99.90;;;;;;6229987;23;20028;-94
2023/08/26 16:23:06;;;;;;;14.18;8.07;;;16.80;99.90;;;;;;6210551;23;20051;-92
2023/08/26 16:25:53;;;;;;;18.00;8.13;;;16.80;99.90;;;;;;6230537;22;20024;-90
2023/08/26 16:28:41;;;;;;;13.52;8.20;;;16.80;99.90;;;;;;6252891;23;20407;-92
2023/08/26 16:31:29;;;;;;;12.10;8.68;;;16.80;99.90;;;;;;6229317;23;20121;-92
2023/08/26 16:34:16;;;;;;;12.88;7.90;;;16.70;99.90;;;;;;6255694;22;20084;-87
2023/08/26 16:39:44;;;;;;;18.45;12.10;;;16.70;99.90;;;;;;6257316;22;20019;-92
2023/08/26 16:42:31;;;;;;;13.30;9.82;;;16.70;99.90;;;;;;6224979;23;20024;-91
2023/08/26 16:45:19;;;;;;;19.55;12.60;;;16.70;99.90;;;;;;6247836;22;20020;-90
2023/08/26 16:48:06;;;;;;;16.95;11.80;;;16.70;99.90;;;;;;6257603;22;20439;-90
2023/08/26 16:50:56;;;;;;;11.60;8.60;;;16.70;99.90;;;;;;6279601;22;20031;-92
2023/08/26 16:53:44;;;;;;;15.02;9.88;;;16.70;99.90;;;;;;6256552;22;20082;-93